Time;durP1;ratioP1;P1;durP2;ratioP2;P2;SDS_P1;SDS_P2;PMS_P1;PMS_P2;Temp;Humidity;BMP_temperature;BMP_pressure;BME280_temperature;BME280_humidity;BME280_pressure;Samples;Min_cycle;Max_cycle;Signal;HPM_P1;HPM_P2
2022/12/01 00:01:09;;;;;;;54.28;29.88;;;6.90;99.90;;;;;;4912410;29;20467;-86
2022/12/01 00:03:35;;;;;;;55.15;30.95;;;6.90;99.90;;;;;;4898824;29;20053;-85
2022/12/01 00:06:08;;;;;;;57.25;31.75;;;6.90;99.90;;;;;;4896683;29;20052;-86
2022/12/01 00:08:34;;;;;;;55.47;30.65;;;6.90;99.90;;;;;;4897326;29;20048;-86
2022/12/01 00:11:09;;;;;;;57.67;30.80;;;6.90;99.90;;;;;;4896981;29;20059;-86
2022/12/01 00:13:35;;;;;;;66.15;32.83;;;6.90;99.90;;;;;;4889117;29;20049;-86
2022/12/01 00:16:15;;;;;;;53.00;28.98;;;6.90;99.90;;;;;;4894239;29;20049;-86
2022/12/01 00:18:41;;;;;;;59.38;30.02;;;6.90;99.90;;;;;;4911413;29;20086;-86
2022/12/01 00:21:14;;;;;;;51.22;27.73;;;6.90;99.90;;;;;;4914163;29;20076;-86
2022/12/01 00:23:48;;;;;;;61.70;32.30;;;6.90;99.90;;;;;;4913416;29;20404;-86
2022/12/01 00:26:15;;;;;;;57.97;30.08;;;6.90;99.90;;;;;;4915886;29;20292;-86
2022/12/01 00:28:40;;;;;;;63.45;33.38;;;6.90;99.90;;;;;;4888618;29;20049;-86
2022/12/01 00:31:11;;;;;;;59.25;31.80;;;6.90;99.90;;;;;;4897365;29;20054;-86
2022/12/01 00:33:37;;;;;;;61.28;31.65;;;6.90;99.90;;;;;;4900770;29;20048;-86
2022/12/01 00:36:03;;;;;;;59.80;31.13;;;6.90;99.90;;;;;;4900138;29;20052;-86
2022/12/01 00:38:29;;;;;;;64.35;31.90;;;6.90;99.90;;;;;;4908244;29;20052;-86
2022/12/01 00:40:54;;;;;;;60.42;31.20;;;6.90;99.90;;;;;;4901847;29;20067;-86
2022/12/01 00:43:20;;;;;;;57.17;30.30;;;6.90;99.90;;;;;;4905281;29;20076;-86
2022/12/01 00:45:46;;;;;;;56.88;30.65;;;6.90;99.90;;;;;;4909722;29;20044;-86
2022/12/01 00:48:11;;;;;;;62.55;31.67;;;6.90;99.90;;;;;;4903731;29;20044;-86
2022/12/01 00:50:37;;;;;;;55.75;30.58;;;6.90;99.90;;;;;;4917179;29;20045;-86
2022/12/01 00:53:02;;;;;;;63.67;32.42;;;6.90;99.90;;;;;;4906789;29;20041;-85
2022/12/01 00:55:28;;;;;;;63.92;31.10;;;6.90;99.90;;;;;;4915804;29;20079;-86
2022/12/01 00:57:53;;;;;;;61.90;32.50;;;6.90;99.90;;;;;;4915373;29;20439;-85
2022/12/01 01:00:19;;;;;;;57.28;31.27;;;6.90;99.90;;;;;;4893450;29;20045;-85
2022/12/01 01:02:45;;;;;;;60.90;30.90;;;6.90;99.90;;;;;;4915810;29;20127;-85
2022/12/01 01:05:10;;;;;;;63.40;30.52;;;6.90;99.90;;;;;;4888156;29;20072;-85
2022/12/01 01:07:36;;;;;;;58.58;30.50;;;6.90;99.90;;;;;;4906052;29;20131;-85
2022/12/01 01:10:02;;;;;;;54.05;29.83;;;6.90;99.90;;;;;;4918004;29;20052;-85
2022/12/01 01:12:27;;;;;;;52.28;28.65;;;6.90;99.90;;;;;;4903142;29;20040;-86
2022/12/01 01:14:53;;;;;;;52.75;29.35;;;6.80;99.90;;;;;;4911695;29;20052;-85
2022/12/01 01:17:18;;;;;;;58.88;30.05;;;6.80;99.90;;;;;;4917799;29;20052;-86
2022/12/01 01:19:44;;;;;;;54.67;29.60;;;6.80;99.90;;;;;;4918871;29;20499;-85
2022/12/01 01:22:10;;;;;;;54.90;29.10;;;6.80;99.90;;;;;;4909935;29;20127;-86
2022/12/01 01:24:36;;;;;;;57.95;31.13;;;6.80;99.90;;;;;;4907862;29;20041;-85
2022/12/01 01:27:01;;;;;;;49.35;27.73;;;6.80;99.90;;;;;;4903743;29;20103;-86
2022/12/01 01:29:27;;;;;;;58.42;31.10;;;6.80;99.90;;;;;;4917711;29;20052;-85
2022/12/01 01:31:52;;;;;;;57.88;30.25;;;6.80;99.90;;;;;;4916119;29;20120;-86
2022/12/01 01:34:18;;;;;;;53.70;28.95;;;6.80;99.90;;;;;;4905019;29;20037;-86
2022/12/01 01:36:43;;;;;;;57.75;31.23;;;6.80;99.90;;;;;;4901115;29;20044;-85
2022/12/01 01:39:09;;;;;;;53.40;29.58;;;6.80;99.90;;;;;;4898889;29;20037;-85
2022/12/01 01:41:35;;;;;;;57.75;30.98;;;6.80;99.90;;;;;;4900500;29;20492;-86
2022/12/01 01:44:04;;;;;;;56.45;29.70;;;6.80;99.90;;;;;;4918509;29;20040;-85
2022/12/01 01:46:32;;;;;;;46.20;26.45;;;6.80;99.90;;;;;;4917763;29;20044;-86
2022/12/01 01:49:04;;;;;;;57.97;31.05;;;6.80;99.90;;;;;;4898568;29;20069;-85
2022/12/01 01:51:37;;;;;;;54.40;29.38;;;6.80;99.90;;;;;;4895301;29;20420;-85
2022/12/01 01:54:17;;;;;;;56.57;30.43;;;6.80;99.90;;;;;;4916038;29;20091;-86
2022/12/01 01:56:45;;;;;;;51.80;28.95;;;6.80;99.90;;;;;;4898712;29;20060;-86
2022/12/01 01:59:15;;;;;;;51.53;29.27;;;6.80;99.90;;;;;;4906473;29;20396;-85
2022/12/01 02:01:40;;;;;;;53.05;28.45;;;6.80;99.90;;;;;;4899624;29;20044;-85
2022/12/01 02:04:06;;;;;;;54.33;29.73;;;6.80;99.90;;;;;;4904610;29;20044;-85
2022/12/01 02:06:32;;;;;;;58.10;29.75;;;6.80;99.90;;;;;;4897452;29;20044;-85
2022/12/01 02:08:58;;;;;;;56.83;31.08;;;6.80;99.90;;;;;;4907457;29;20048;-86
2022/12/01 02:11:50;;;;;;;58.47;32.25;;;6.80;99.90;;;;;;4914659;29;20052;-86
2022/12/01 02:14:32;;;;;;;57.33;30.83;;;6.80;99.90;;;;;;4912894;29;20091;-86
2022/12/01 02:17:36;;;;;;;54.08;30.50;;;6.80;99.90;;;;;;4916567;29;20496;-85
2022/12/01 02:20:35;;;;;;;53.72;29.95;;;6.80;99.90;;;;;;4862235;29;20060;-86
2022/12/01 02:23:19;;;;;;;56.13;29.98;;;6.80;99.90;;;;;;4908609;29;20051;-86
2022/12/01 02:26:06;;;;;;;58.75;31.17;;;6.70;99.90;;;;;;4895062;29;20140;-85
2022/12/01 02:28:47;;;;;;;59.10;30.70;;;6.80;99.90;;;;;;4901944;29;20067;-86
2022/12/01 02:31:34;;;;;;;58.80;32.10;;;6.80;99.90;;;;;;4911286;29;20072;-85
2022/12/01 02:34:26;;;;;;;55.53;30.42;;;6.70;99.90;;;;;;4888088;29;20465;-86
2022/12/01 02:37:18;;;;;;;58.42;30.95;;;6.80;99.90;;;;;;4900815;29;20111;-86
2022/12/01 02:40:02;;;;;;;51.90;29.35;;;6.80;99.90;;;;;;4916080;29;20111;-86
2022/12/01 02:43:06;;;;;;;56.50;31.02;;;6.70;99.90;;;;;;4910357;29;20119;-85
2022/12/01 02:45:31;;;;;;;59.17;32.65;;;6.70;99.90;;;;;;4901630;29;20062;-86
2022/12/01 02:48:01;;;;;;;66.38;35.00;;;6.70;99.90;;;;;;4901187;29;20052;-86
2022/12/01 02:50:29;;;;;;;56.42;31.20;;;6.70;99.90;;;;;;4909994;29;20047;-86
2022/12/01 02:52:55;;;;;;;52.70;30.90;;;6.80;99.90;;;;;;4896894;29;20100;-86
2022/12/01 02:55:20;;;;;;;51.72;29.80;;;6.70;99.90;;;;;;4911705;29;20056;-86
2022/12/01 02:57:46;;;;;;;55.92;31.17;;;6.70;99.90;;;;;;4892729;29;20059;-86
2022/12/01 03:00:12;;;;;;;57.53;30.30;;;6.70;99.90;;;;;;4914035;29;20083;-86
2022/12/01 03:02:59;;;;;;;70.93;36.83;;;6.70;99.90;;;;;;4903826;29;20053;-86
2022/12/01 03:05:54;;;;;;;51.10;29.77;;;6.70;99.90;;;;;;4905114;29;20059;-86
2022/12/01 03:09:03;;;;;;;54.90;30.80;;;6.70;99.90;;;;;;4895604;29;20064;-86
2022/12/01 03:11:55;;;;;;;52.45;30.38;;;6.70;99.90;;;;;;4910058;29;20536;-86
2022/12/01 03:14:32;;;;;;;52.53;28.83;;;6.70;99.90;;;;;;4896439;29;20048;-85
2022/12/01 03:17:00;;;;;;;57.85;30.30;;;6.70;99.90;;;;;;4895872;29;20403;-86
2022/12/01 03:19:36;;;;;;;55.83;32.42;;;6.70;99.90;;;;;;4898218;29;20532;-86
2022/12/01 03:22:09;;;;;;;57.67;30.70;;;6.70;99.90;;;;;;4879736;29;20045;-86
2022/12/01 03:24:37;;;;;;;51.17;30.08;;;6.70;99.90;;;;;;4903410;29;20395;-85
2022/12/01 03:27:04;;;;;;;52.03;29.80;;;6.70;99.90;;;;;;4902379;29;20056;-86
2022/12/01 03:29:38;;;;;;;60.08;32.58;;;6.70;99.90;;;;;;4888529;29;20055;-86
2022/12/01 03:32:30;;;;;;;58.30;31.05;;;6.70;99.90;;;;;;4914031;29;20121;-86
2022/12/01 03:35:03;;;;;;;59.97;31.67;;;6.70;99.90;;;;;;4906457;29;20089;-86
2022/12/01 03:37:36;;;;;;;60.15;33.00;;;6.70;99.90;;;;;;4896483;29;20040;-86
2022/12/01 03:40:06;;;;;;;59.35;31.30;;;6.70;99.90;;;;;;4909783;29;20044;-86
2022/12/01 03:42:40;;;;;;;62.85;34.40;;;6.70;99.90;;;;;;4897801;29;20148;-86
2022/12/01 03:45:14;;;;;;;66.30;35.38;;;6.70;99.90;;;;;;4899205;29;20055;-85
2022/12/01 03:47:40;;;;;;;59.58;31.70;;;6.70;99.90;;;;;;4913784;29;20040;-86
2022/12/01 03:50:12;;;;;;;57.63;33.58;;;6.60;99.90;;;;;;4904644;29;20045;-86
2022/12/01 03:52:52;;;;;;;60.47;32.55;;;6.70;99.90;;;;;;4914428;29;20083;-86
2022/12/01 03:55:26;;;;;;;57.55;31.65;;;6.70;99.90;;;;;;4912439;29;20044;-86
2022/12/01 03:58:00;;;;;;;64.95;34.33;;;6.70;99.90;;;;;;4899728;29;20039;-86
2022/12/01 04:00:26;;;;;;;65.97;34.15;;;6.60;99.90;;;;;;4908139;29;20056;-86
2022/12/01 04:02:57;;;;;;;56.70;31.13;;;6.60;99.90;;;;;;4896641;29;20457;-85
2022/12/01 04:05:23;;;;;;;60.85;32.17;;;6.70;99.90;;;;;;4897477;29;20512;-86
2022/12/01 04:07:49;;;;;;;59.72;32.40;;;6.70;99.90;;;;;;4900779;29;20045;-86
2022/12/01 04:10:15;;;;;;;58.80;31.55;;;6.60;99.90;;;;;;4907432;29;20103;-86
2022/12/01 04:12:40;;;;;;;60.45;33.05;;;6.60;99.90;;;;;;4901627;29;20044;-86
2022/12/01 04:15:09;;;;;;;62.17;34.17;;;6.60;99.90;;;;;;4899461;29;20056;-86
2022/12/01 04:17:35;;;;;;;62.35;32.92;;;6.60;99.90;;;;;;4916921;29;20040;-86
2022/12/01 04:20:02;;;;;;;63.30;34.30;;;6.60;99.90;;;;;;4918373;29;20054;-86
2022/12/01 04:22:28;;;;;;;61.42;31.85;;;6.60;99.90;;;;;;4908978;29;20044;-86
2022/12/01 04:24:53;;;;;;;56.15;31.42;;;6.60;99.90;;;;;;4902112;29;20063;-86
2022/12/01 04:27:19;;;;;;;68.80;36.05;;;6.60;99.90;;;;;;4902304;29;20083;-86
2022/12/01 04:29:45;;;;;;;65.05;35.55;;;6.60;99.90;;;;;;4902505;29;20547;-86
2022/12/01 04:32:12;;;;;;;58.40;31.70;;;6.60;99.90;;;;;;4907987;29;20060;-86
2022/12/01 04:34:38;;;;;;;63.42;33.28;;;6.60;99.90;;;;;;4886823;29;20045;-85
2022/12/01 04:37:04;;;;;;;61.50;33.75;;;6.70;99.90;;;;;;4910797;29;20512;-86
2022/12/01 04:39:30;;;;;;;62.58;33.53;;;6.60;99.90;;;;;;4899564;29;20044;-86
2022/12/01 04:41:56;;;;;;;58.05;32.15;;;6.60;99.90;;;;;;4898583;29;20049;-86
2022/12/01 04:44:22;;;;;;;60.33;32.83;;;6.60;99.90;;;;;;4916996;29;20103;-85
2022/12/01 04:46:47;;;;;;;61.53;33.63;;;6.60;99.90;;;;;;4915891;29;20050;-87
2022/12/01 04:49:15;;;;;;;64.28;34.35;;;6.60;99.90;;;;;;4904036;29;20037;-88
2022/12/01 04:51:41;;;;;;;60.75;33.25;;;6.60;99.90;;;;;;4909750;29;20107;-88
2022/12/01 04:54:06;;;;;;;59.50;32.50;;;6.60;99.90;;;;;;4918695;29;20048;-89
2022/12/01 04:56:32;;;;;;;65.78;34.92;;;6.60;99.90;;;;;;4917087;29;20076;-90
2022/12/01 04:59:01;;;;;;;79.55;39.20;;;6.60;99.90;;;;;;4911433;29;20479;-89
2022/12/01 05:01:32;;;;;;;69.28;36.15;;;6.60;99.90;;;;;;4900970;29;20064;-88
2022/12/01 05:04:04;;;;;;;61.92;33.17;;;6.60;99.90;;;;;;4898629;29;20122;-89
2022/12/01 05:06:33;;;;;;;58.03;32.95;;;6.60;99.90;;;;;;4900434;29;20041;-89
2022/12/01 05:09:00;;;;;;;61.47;33.15;;;6.60;99.90;;;;;;4904264;29;20074;-87
2022/12/01 05:11:31;;;;;;;60.85;32.58;;;6.60;99.90;;;;;;4908491;29;20049;-87
2022/12/01 05:14:03;;;;;;;65.18;33.95;;;6.60;99.90;;;;;;4883024;29;20144;-89
2022/12/01 05:16:31;;;;;;;66.07;35.33;;;6.60;99.90;;;;;;4889938;29;20045;-91
2022/12/01 05:21:45;;;;;;;65.57;34.97;;;6.60;99.90;;;;;;4880600;29;20085;-88
2022/12/01 05:24:12;;;;;;;61.10;33.25;;;6.60;99.90;;;;;;4880084;29;20135;-88
2022/12/01 05:26:38;;;;;;;65.10;35.10;;;6.60;99.90;;;;;;4898888;29;20060;-88
2022/12/01 05:29:04;;;;;;;62.47;34.75;;;6.60;99.90;;;;;;4899321;29;20054;-88
2022/12/01 05:31:30;;;;;;;66.30;35.13;;;6.60;99.90;;;;;;4899036;29;20048;-88
2022/12/01 05:33:55;;;;;;;65.40;34.88;;;6.60;99.90;;;;;;4899319;29;20135;-88
2022/12/01 05:36:21;;;;;;;61.65;34.53;;;6.60;99.90;;;;;;4898782;29;20084;-87
2022/12/01 05:38:47;;;;;;;65.80;34.63;;;6.60;99.90;;;;;;4898334;29;20076;-88
2022/12/01 05:41:13;;;;;;;63.47;34.65;;;6.60;99.90;;;;;;4881823;29;20049;-87
2022/12/01 05:43:38;;;;;;;66.25;35.70;;;6.50;99.90;;;;;;4881274;29;20045;-88
2022/12/01 05:46:04;;;;;;;57.97;32.92;;;6.60;99.90;;;;;;4881549;29;20048;-89
2022/12/01 05:48:29;;;;;;;59.13;33.10;;;6.60;99.90;;;;;;4879884;29;20401;-88
2022/12/01 05:50:55;;;;;;;63.33;35.75;;;6.60;99.90;;;;;;4881935;29;20101;-88
2022/12/01 05:53:21;;;;;;;62.90;34.60;;;6.60;99.90;;;;;;4878785;29;20481;-88
2022/12/01 05:55:51;;;;;;;64.43;34.92;;;6.60;99.90;;;;;;4880203;29;20109;-88
2022/12/01 05:58:17;;;;;;;77.22;39.92;;;6.60;99.90;;;;;;4879437;29;20131;-88
2022/12/01 06:00:43;;;;;;;71.45;37.60;;;6.60;99.90;;;;;;4880413;29;20127;-89
2022/12/01 06:03:08;;;;;;;60.78;34.85;;;6.50;99.90;;;;;;4879803;29;20434;-88
2022/12/01 06:05:34;;;;;;;58.42;32.33;;;6.50;99.90;;;;;;4884782;29;20052;-88
2022/12/01 06:07:59;;;;;;;54.65;31.52;;;6.50;99.90;;;;;;4899534;29;20053;-88
2022/12/01 06:10:25;;;;;;;63.90;33.28;;;6.50;99.90;;;;;;4897683;29;20397;-88
2022/12/01 06:12:50;;;;;;;64.75;33.83;;;6.50;99.90;;;;;;4897380;29;20040;-89
2022/12/01 06:15:16;;;;;;;59.20;32.17;;;6.50;99.90;;;;;;4899420;29;20408;-88
2022/12/01 06:17:42;;;;;;;65.70;34.85;;;6.50;99.90;;;;;;4897170;29;20148;-89
2022/12/01 06:20:08;;;;;;;69.05;35.58;;;6.50;99.90;;;;;;4878252;29;20049;-89
2022/12/01 06:22:34;;;;;;;65.35;34.08;;;6.50;99.90;;;;;;4879363;29;20432;-89
2022/12/01 06:25:00;;;;;;;64.15;34.97;;;6.50;99.90;;;;;;4880042;29;20048;-88
2022/12/01 06:27:25;;;;;;;66.15;35.00;;;6.50;99.90;;;;;;4878575;29;20512;-89
2022/12/01 06:29:51;;;;;;;63.25;33.33;;;6.50;99.90;;;;;;4879671;29;20049;-88
2022/12/01 06:32:16;;;;;;;65.85;35.65;;;6.50;99.90;;;;;;4879525;29;20501;-89
2022/12/01 06:34:45;;;;;;;64.13;34.33;;;6.50;99.90;;;;;;4879431;29;20128;-88
2022/12/01 06:37:11;;;;;;;60.78;34.90;;;6.50;99.90;;;;;;4878838;29;20052;-88
2022/12/01 06:39:37;;;;;;;65.93;33.72;;;6.40;99.90;;;;;;4880281;29;20124;-88
2022/12/01 06:42:02;;;;;;;62.63;34.90;;;6.40;99.90;;;;;;4879483;29;20129;-89
2022/12/01 06:44:28;;;;;;;63.53;34.65;;;6.40;99.90;;;;;;4878876;29;20556;-89
2022/12/01 06:46:55;;;;;;;62.60;35.10;;;6.40;99.90;;;;;;4907961;29;20048;-89
2022/12/01 06:49:21;;;;;;;63.83;34.78;;;6.40;99.90;;;;;;4877919;29;20045;-89
2022/12/01 06:51:46;;;;;;;66.18;34.60;;;6.40;99.90;;;;;;4884820;29;20135;-88
2022/12/01 06:54:13;;;;;;;60.88;32.60;;;6.30;99.90;;;;;;4897107;29;20044;-88
2022/12/01 06:56:39;;;;;;;64.72;35.78;;;6.30;99.90;;;;;;4894696;29;20051;-88
2022/12/01 06:59:06;;;;;;;65.25;35.60;;;6.30;99.90;;;;;;4897325;29;20140;-88
2022/12/01 07:01:32;;;;;;;62.50;33.75;;;6.20;99.90;;;;;;4898798;29;20139;-88
2022/12/01 07:03:57;;;;;;;60.33;33.88;;;6.20;99.90;;;;;;4898137;29;20092;-89
2022/12/01 07:06:23;;;;;;;60.55;33.80;;;6.20;99.90;;;;;;4898336;29;20404;-88
2022/12/01 07:08:48;;;;;;;64.22;34.65;;;6.20;99.90;;;;;;4896730;29;20049;-88
2022/12/01 07:11:15;;;;;;;61.20;33.10;;;6.10;99.90;;;;;;4896327;29;20047;-88
2022/12/01 07:13:44;;;;;;;66.15;34.63;;;6.10;99.90;;;;;;4898261;29;20051;-88
2022/12/01 07:16:10;;;;;;;61.42;33.00;;;6.10;99.90;;;;;;4884737;29;20410;-88
2022/12/01 07:18:37;;;;;;;66.43;33.90;;;6.10;99.90;;;;;;4878531;29;20049;-88
2022/12/01 07:21:06;;;;;;;64.75;34.95;;;6.00;99.90;;;;;;4879481;29;20505;-88
2022/12/01 07:23:32;;;;;;;60.90;33.05;;;6.00;99.90;;;;;;4877386;29;20053;-89
2022/12/01 07:26:06;;;;;;;60.17;32.08;;;6.00;99.90;;;;;;4879533;29;20091;-88
2022/12/01 07:28:32;;;;;;;57.80;32.28;;;6.00;99.90;;;;;;4878323;29;20064;-88
2022/12/01 07:31:06;;;;;;;62.22;32.78;;;6.00;99.90;;;;;;4877286;29;20049;-88
2022/12/01 07:33:33;;;;;;;61.08;32.60;;;5.90;99.90;;;;;;4879351;29;20528;-88
2022/12/01 07:35:58;;;;;;;59.00;32.55;;;5.90;99.90;;;;;;4878093;29;20045;-88
2022/12/01 07:38:26;;;;;;;58.17;32.97;;;5.90;99.90;;;;;;4879092;29;20116;-89
2022/12/01 07:40:51;;;;;;;58.28;33.30;;;5.90;99.90;;;;;;4878832;29;20096;-88
2022/12/01 07:43:17;;;;;;;59.53;33.70;;;5.90;99.90;;;;;;4878915;29;20041;-88
2022/12/01 07:45:43;;;;;;;60.78;33.03;;;5.90;99.90;;;;;;4878273;29;20040;-88
2022/12/01 07:48:08;;;;;;;61.88;33.08;;;5.90;99.90;;;;;;4877672;29;20173;-87
2022/12/01 07:50:36;;;;;;;59.92;32.88;;;5.90;99.90;;;;;;4878276;29;20144;-88
2022/12/01 07:53:02;;;;;;;60.97;32.95;;;5.90;99.90;;;;;;4878457;29;20486;-88
2022/12/01 07:55:27;;;;;;;63.92;34.88;;;5.90;99.90;;;;;;4894174;29;20052;-87
2022/12/01 07:57:53;;;;;;;60.72;33.03;;;5.90;99.90;;;;;;4896763;29;20401;-87
2022/12/01 08:00:19;;;;;;;62.53;32.85;;;5.90;99.90;;;;;;4881134;29;20045;-88
2022/12/01 08:02:47;;;;;;;62.88;33.92;;;5.90;99.90;;;;;;4879096;29;20049;-87
2022/12/01 08:05:13;;;;;;;63.67;33.72;;;5.90;99.90;;;;;;4877576;29;20561;-88
2022/12/01 08:07:38;;;;;;;61.20;33.35;;;5.90;99.90;;;;;;4878479;29;20108;-87
2022/12/01 08:10:04;;;;;;;60.78;33.15;;;5.80;99.90;;;;;;4879862;29;20466;-87
2022/12/01 08:12:30;;;;;;;62.95;32.92;;;5.90;99.90;;;;;;4896877;29;20142;-88
2022/12/01 08:14:55;;;;;;;58.70;32.70;;;5.80;99.90;;;;;;4890276;29;20084;-88
2022/12/01 08:17:21;;;;;;;62.08;33.33;;;5.80;99.90;;;;;;4877651;29;20041;-88
2022/12/01 08:19:46;;;;;;;55.63;31.08;;;5.80;99.90;;;;;;4877480;29;20076;-89
2022/12/01 08:22:12;;;;;;;60.45;32.00;;;5.80;99.90;;;;;;4878728;29;20049;-88
2022/12/01 08:24:37;;;;;;;63.60;33.90;;;5.80;99.90;;;;;;4879178;29;20037;-88
2022/12/01 08:27:03;;;;;;;61.20;33.20;;;5.80;99.90;;;;;;4883327;29;20461;-89
2022/12/01 08:29:28;;;;;;;60.92;33.13;;;5.80;99.90;;;;;;4897637;29;20049;-88
2022/12/01 08:31:57;;;;;;;61.42;31.42;;;5.80;99.90;;;;;;4896089;29;20060;-88
2022/12/01 08:34:26;;;;;;;64.03;34.30;;;5.70;99.90;;;;;;4909682;29;20485;-90
2022/12/01 08:36:52;;;;;;;64.68;34.53;;;5.70;99.90;;;;;;4889254;29;20037;-88
2022/12/01 08:39:17;;;;;;;68.40;34.53;;;5.70;99.90;;;;;;4878926;29;20052;-87
2022/12/01 08:41:43;;;;;;;64.70;34.38;;;5.70;99.90;;;;;;4876959;29;20045;-89
2022/12/01 08:44:09;;;;;;;57.22;32.65;;;5.70;99.90;;;;;;4877078;29;20053;-88
2022/12/01 08:46:35;;;;;;;62.05;32.17;;;5.70;99.90;;;;;;4877772;29;20100;-89
2022/12/01 08:49:05;;;;;;;63.00;33.45;;;5.70;99.90;;;;;;4877365;29;20044;-88
2022/12/01 08:51:31;;;;;;;56.13;31.95;;;5.70;99.90;;;;;;4882006;29;20052;-87
2022/12/01 08:53:58;;;;;;;60.83;32.10;;;5.70;99.90;;;;;;4899179;29;20112;-88
2022/12/01 08:56:39;;;;;;;61.67;33.60;;;5.70;99.90;;;;;;4898634;29;20052;-87
2022/12/01 08:59:05;;;;;;;62.45;33.42;;;5.70;99.90;;;;;;4899920;29;20493;-88
2022/12/01 09:01:31;;;;;;;60.38;31.85;;;5.60;99.90;;;;;;4888547;29;20104;-87
2022/12/01 09:04:04;;;;;;;66.13;34.22;;;5.60;99.90;;;;;;4881004;29;20045;-88
2022/12/01 09:06:32;;;;;;;67.18;32.83;;;5.60;99.90;;;;;;4881885;29;20097;-88
2022/12/01 09:09:00;;;;;;;55.58;31.65;;;5.60;99.90;;;;;;4882199;29;20486;-87
2022/12/01 09:11:26;;;;;;;61.17;32.38;;;5.60;99.90;;;;;;4890147;29;20450;-88
2022/12/01 09:13:52;;;;;;;59.25;32.28;;;5.60;99.90;;;;;;4899459;29;20131;-88
2022/12/01 09:16:18;;;;;;;70.47;37.33;;;5.60;99.90;;;;;;4898240;29;20048;-87
2022/12/01 09:18:45;;;;;;;61.97;33.15;;;5.60;99.90;;;;;;4900175;29;20139;-88
2022/12/01 09:21:20;;;;;;;61.25;32.88;;;5.60;99.90;;;;;;4899070;29;20041;-88
2022/12/01 09:23:46;;;;;;;65.40;33.80;;;5.60;99.90;;;;;;4899718;29;20057;-88
2022/12/01 09:26:17;;;;;;;64.55;34.00;;;5.60;99.90;;;;;;4899034;29;20044;-87
2022/12/01 09:28:43;;;;;;;61.28;32.30;;;5.60;99.90;;;;;;4880915;29;20041;-88
2022/12/01 09:31:10;;;;;;;57.67;31.58;;;5.60;99.90;;;;;;4880742;29;20128;-88
2022/12/01 09:33:36;;;;;;;61.25;33.38;;;5.60;99.90;;;;;;4879201;29;20065;-87
2022/12/01 09:36:03;;;;;;;58.15;32.88;;;5.60;99.90;;;;;;4880590;29;20104;-87
2022/12/01 09:38:30;;;;;;;62.45;33.90;;;5.70;99.90;;;;;;4877932;29;20045;-87
2022/12/01 09:40:59;;;;;;;60.10;31.20;;;5.60;99.90;;;;;;4888770;29;20048;-87
2022/12/01 09:43:28;;;;;;;58.03;31.02;;;5.70;99.90;;;;;;4896740;29;20515;-84
2022/12/01 09:46:01;;;;;;;57.30;30.70;;;5.70;99.90;;;;;;4897420;29;20067;-85
2022/12/01 09:48:42;;;;;;;56.17;31.88;;;5.70;99.90;;;;;;4885428;29;20053;-85
2022/12/01 09:51:15;;;;;;;60.60;32.40;;;5.70;99.90;;;;;;4880195;29;20060;-87
2022/12/01 09:53:42;;;;;;;54.10;30.23;;;5.70;99.90;;;;;;4878852;29;20041;-86
2022/12/01 09:56:19;;;;;;;59.67;32.08;;;5.70;99.90;;;;;;4895402;29;20041;-86
2022/12/01 09:58:49;;;;;;;57.00;29.48;;;5.70;99.90;;;;;;4897969;29;20202;-87
2022/12/01 10:01:17;;;;;;;57.67;31.48;;;5.70;99.90;;;;;;4898785;29;20063;-86
2022/12/01 10:03:48;;;;;;;51.13;29.95;;;5.80;99.90;;;;;;4898640;29;20036;-86
2022/12/01 10:10:10;;;;;;;56.08;31.35;;;5.80;99.90;;;;;;4899103;29;20088;-93
2022/12/01 10:16:35;;;;;;;60.28;32.38;;;5.80;99.90;;;;;;5974030;23;20035;-91
2022/12/01 10:19:07;;;;;;;52.10;28.92;;;5.90;99.90;;;;;;4915399;29;20074;-88
2022/12/01 10:21:35;;;;;;;62.60;32.38;;;5.90;99.90;;;;;;4917034;29;20036;-88
2022/12/01 10:24:42;;;;;;;53.00;29.40;;;6.00;99.90;;;;;;4918261;29;20140;-88
2022/12/01 10:27:47;;;;;;;53.83;30.45;;;6.00;99.90;;;;;;4917135;29;20044;-88
2022/12/01 10:30:18;;;;;;;53.97;29.58;;;6.00;99.90;;;;;;4916033;29;20060;-88
2022/12/01 10:32:57;;;;;;;56.45;31.13;;;6.10;99.90;;;;;;4916179;29;20062;-89
2022/12/01 10:35:27;;;;;;;58.47;31.63;;;6.10;99.90;;;;;;4917825;29;20048;-88
2022/12/01 10:37:56;;;;;;;49.28;28.42;;;6.20;99.90;;;;;;4917996;29;20510;-89
2022/12/01 10:40:23;;;;;;;55.58;30.40;;;6.20;99.90;;;;;;4916785;29;20040;-88
2022/12/01 10:42:50;;;;;;;51.78;29.38;;;6.30;99.90;;;;;;4916752;29;20052;-88
2022/12/01 10:45:21;;;;;;;53.13;30.08;;;6.30;99.90;;;;;;4916540;29;20040;-88
2022/12/01 10:48:07;;;;;;;51.08;29.35;;;6.30;99.90;;;;;;4916880;29;20040;-87
2022/12/01 10:50:33;;;;;;;53.63;29.50;;;6.40;99.90;;;;;;4917483;29;20080;-88
2022/12/01 10:52:59;;;;;;;53.88;30.90;;;6.40;99.90;;;;;;4917845;29;20094;-88
2022/12/01 10:55:27;;;;;;;49.38;28.45;;;6.50;99.90;;;;;;4915435;29;20112;-88
2022/12/01 10:57:56;;;;;;;50.05;29.77;;;6.50;99.90;;;;;;4916753;29;20453;-88
2022/12/01 11:00:32;;;;;;;68.80;34.42;;;6.50;99.90;;;;;;4916924;29;20044;-88
2022/12/01 11:02:58;;;;;;;53.05;29.75;;;6.60;99.90;;;;;;4917145;29;20096;-89
2022/12/01 11:05:27;;;;;;;49.13;29.85;;;6.60;99.90;;;;;;4917373;29;20381;-88
2022/12/01 11:07:54;;;;;;;47.50;27.88;;;6.60;99.90;;;;;;4916720;29;20095;-88
2022/12/01 11:10:34;;;;;;;63.47;34.03;;;6.70;99.90;;;;;;4915946;29;20083;-88
2022/12/01 11:13:18;;;;;;;51.35;28.80;;;6.70;99.90;;;;;;4916576;29;20044;-88
2022/12/01 11:15:58;;;;;;;56.80;31.17;;;6.70;99.90;;;;;;4916216;29;20056;-88
2022/12/01 11:18:26;;;;;;;53.75;29.77;;;6.70;99.90;;;;;;4915579;29;20056;-88
2022/12/01 11:21:13;;;;;;;48.08;27.67;;;6.80;99.90;;;;;;4917328;29;20090;-88
2022/12/01 11:23:47;;;;;;;46.78;26.85;;;6.80;99.90;;;;;;4915808;29;20063;-88
2022/12/01 11:26:13;;;;;;;48.55;28.73;;;6.80;99.90;;;;;;4917075;29;20054;-88
2022/12/01 11:28:57;;;;;;;48.28;28.20;;;6.90;99.90;;;;;;4917215;29;20123;-88
2022/12/01 11:31:39;;;;;;;50.85;28.90;;;6.90;99.90;;;;;;4915491;29;20523;-88
2022/12/01 11:34:16;;;;;;;48.28;28.10;;;6.90;99.90;;;;;;4915890;29;20059;-88
2022/12/01 11:36:45;;;;;;;48.60;28.77;;;6.90;99.90;;;;;;4915074;29;20134;-88
2022/12/01 11:39:31;;;;;;;50.35;29.02;;;7.00;99.90;;;;;;4915684;29;20164;-88
2022/12/01 11:42:21;;;;;;;51.67;28.67;;;7.00;99.90;;;;;;4916110;29;20146;-88
2022/12/01 11:44:56;;;;;;;48.13;28.48;;;7.00;99.90;;;;;;4907985;29;20056;-88
2022/12/01 11:47:24;;;;;;;52.28;29.77;;;7.00;99.90;;;;;;4915526;29;20040;-88
2022/12/01 11:50:01;;;;;;;47.75;27.02;;;7.00;99.90;;;;;;4917056;29;20050;-87
2022/12/01 11:52:33;;;;;;;49.20;29.05;;;7.10;99.90;;;;;;4913398;29;20056;-87
2022/12/01 11:55:22;;;;;;;47.05;29.10;;;7.10;99.90;;;;;;4915924;29;20052;-87
2022/12/01 11:57:50;;;;;;;51.40;29.30;;;7.10;99.90;;;;;;4914887;29;20044;-87
2022/12/01 12:00:25;;;;;;;45.83;27.85;;;7.10;99.90;;;;;;4914592;29;20488;-87
2022/12/01 12:03:09;;;;;;;50.13;28.63;;;7.10;99.90;;;;;;4915162;29;20432;-87
2022/12/01 12:05:57;;;;;;;46.03;27.83;;;7.20;99.90;;;;;;4915146;29;20044;-88
2022/12/01 12:08:41;;;;;;;51.35;29.60;;;7.20;99.90;;;;;;4915507;29;20130;-88
2022/12/01 12:11:33;;;;;;;49.25;28.92;;;7.20;99.90;;;;;;4914893;29;20052;-88
2022/12/01 12:14:27;;;;;;;45.92;26.73;;;7.20;99.90;;;;;;4915912;29;20425;-85
2022/12/01 12:17:05;;;;;;;49.47;28.48;;;7.20;99.90;;;;;;4915587;29;20060;-85
2022/12/01 12:19:47;;;;;;;46.55;28.27;;;7.30;99.90;;;;;;4914421;29;20058;-84
2022/12/01 12:22:32;;;;;;;52.50;30.15;;;7.30;99.90;;;;;;4916611;29;20050;-85
2022/12/01 12:25:22;;;;;;;50.17;28.85;;;7.30;99.90;;;;;;4913658;29;20051;-84
2022/12/01 12:28:17;;;;;;;42.90;26.48;;;7.30;99.90;;;;;;4902178;29;20048;-85
2022/12/01 12:31:01;;;;;;;49.05;29.60;;;7.30;99.90;;;;;;4898770;29;20155;-85
2022/12/01 12:33:52;;;;;;;45.22;27.55;;;7.40;99.90;;;;;;4913372;29;20048;-83
2022/12/01 12:36:36;;;;;;;48.22;28.55;;;7.40;99.90;;;;;;4901580;29;20044;-85
2022/12/01 12:39:26;;;;;;;43.55;26.55;;;7.40;99.90;;;;;;4900346;29;20044;-86
2022/12/01 12:41:54;;;;;;;46.13;28.33;;;7.40;99.90;;;;;;4900700;29;20045;-85
2022/12/01 12:44:36;;;;;;;46.05;28.35;;;7.40;99.90;;;;;;4913638;29;20103;-85
2022/12/01 12:47:21;;;;;;;44.75;26.70;;;7.40;99.90;;;;;;4911319;29;20382;-85
2022/12/01 12:50:00;;;;;;;46.95;28.85;;;7.50;99.90;;;;;;4918357;29;20048;-85
2022/12/01 12:52:33;;;;;;;44.72;27.25;;;7.50;99.90;;;;;;4918299;29;20480;-87
2022/12/01 12:55:10;;;;;;;44.15;28.10;;;7.50;99.90;;;;;;4902892;29;20408;-87
2022/12/01 12:57:51;;;;;;;46.15;27.05;;;7.50;99.90;;;;;;4910076;29;20059;-86
2022/12/01 13:00:26;;;;;;;46.75;27.25;;;7.50;99.90;;;;;;4918492;29;20130;-87
2022/12/01 13:03:16;;;;;;;45.83;28.33;;;7.50;99.90;;;;;;4911188;29;20051;-87
2022/12/01 13:06:01;;;;;;;46.55;28.05;;;7.60;99.90;;;;;;4910638;29;20047;-87